createdAt,value
2023-01-20T00:00:45.928Z,56.28
2023-01-20T00:03:33.507Z,56.80
2023-01-20T00:06:22.275Z,50.05
2023-01-20T00:09:16.005Z,52.17
2023-01-20T00:12:03.821Z,50.88
2023-01-20T00:14:51.503Z,55.05
2023-01-20T00:17:39.072Z,52.22
2023-01-20T00:20:26.732Z,52.20
2023-01-20T00:23:14.639Z,50.58
2023-01-20T00:26:26.833Z,52.28
2023-01-20T00:29:14.483Z,58.90
2023-01-20T00:32:02.479Z,48.83
2023-01-20T00:34:50.453Z,51.28
2023-01-20T00:37:38.319Z,56.78
2023-01-20T00:40:25.880Z,53.75
2023-01-20T00:43:13.539Z,48.80
2023-01-20T00:46:01.395Z,48.67
2023-01-20T00:48:49.366Z,49.30
2023-01-20T00:51:37.119Z,51.65
2023-01-20T00:54:24.719Z,50.88
2023-01-20T00:57:12.713Z,51.72
2023-01-20T01:00:00.488Z,52.72
2023-01-20T01:02:48.029Z,49.78
2023-01-20T01:05:36.134Z,51.53
2023-01-20T01:08:23.739Z,49.90
2023-01-20T01:11:12.703Z,49.45
2023-01-20T01:14:00.438Z,56.28
2023-01-20T01:16:48.036Z,70.72
2023-01-20T01:19:35.800Z,61.70
2023-01-20T01:22:23.482Z,56.72
2023-01-20T01:25:11.226Z,54.60
2023-01-20T01:27:59.463Z,71.35
2023-01-20T01:30:47.122Z,82.07
2023-01-20T01:33:35.497Z,64.40
2023-01-20T01:36:23.418Z,85.50
2023-01-20T01:39:11.023Z,59.55
2023-01-20T01:41:58.671Z,80.28
2023-01-20T01:45:11.602Z,58.35
2023-01-20T01:48:07.493Z,113.65
2023-01-20T01:51:02.681Z,91.22
2023-01-20T01:54:02.149Z,88.65
2023-01-20T01:56:51.388Z,74.95
2023-01-20T01:59:39.497Z,101.85
2023-01-20T02:02:27.268Z,62.55
2023-01-20T02:05:16.379Z,64.90
2023-01-20T02:08:04.678Z,75.25
2023-01-20T02:10:52.360Z,74.10
2023-01-20T02:13:40.906Z,62.53
2023-01-20T02:16:55.556Z,83.25
2023-01-20T02:19:49.104Z,71.75
2023-01-20T02:22:43.286Z,73.20
2023-01-20T02:26:03.830Z,99.60
2023-01-20T02:29:30.044Z,68.55
2023-01-20T02:32:27.605Z,76.78
2023-01-20T02:35:29.805Z,81.93
2023-01-20T02:38:57.738Z,64.97
2023-01-20T02:41:45.356Z,68.57
2023-01-20T02:44:38.645Z,77.07
2023-01-20T02:47:37.709Z,90.18
2023-01-20T02:50:32.423Z,68.57
2023-01-20T02:53:22.819Z,67.20
2023-01-20T02:56:13.202Z,61.45
2023-01-20T02:59:15.654Z,60.67
2023-01-20T03:02:08.145Z,62.33
2023-01-20T03:05:04.533Z,55.15
2023-01-20T03:07:54.736Z,71.55
2023-01-20T03:10:45.464Z,56.35
2023-01-20T03:13:39.897Z,70.43
2023-01-20T03:16:29.347Z,57.50
2023-01-20T03:19:20.429Z,72.40
2023-01-20T03:22:08.445Z,62.45
2023-01-20T03:24:58.598Z,59.92
2023-01-20T03:27:46.244Z,60.17
2023-01-20T03:30:34.264Z,66.45
2023-01-20T03:33:22.321Z,67.03
2023-01-20T03:36:10.758Z,55.75
2023-01-20T03:38:59.340Z,63.05
2023-01-20T03:41:55.971Z,54.90
2023-01-20T03:45:01.560Z,45.72
2023-01-20T03:48:12.148Z,59.65
2023-01-20T03:51:07.154Z,62.67
2023-01-20T03:54:09.007Z,43.42
2023-01-20T03:57:14.126Z,53.70
2023-01-20T04:00:04.181Z,59.03
2023-01-20T04:02:54.529Z,78.85
2023-01-20T04:05:44.561Z,69.10
2023-01-20T04:08:37.440Z,81.63
2023-01-20T04:11:26.216Z,85.33
2023-01-20T04:14:13.900Z,73.60
2023-01-20T04:17:03.469Z,46.22
2023-01-20T04:19:51.597Z,44.10
2023-01-20T04:22:55.174Z,92.13
2023-01-20T04:25:43.334Z,79.65
2023-01-20T04:28:31.773Z,56.67
2023-01-20T04:31:30.140Z,93.07
2023-01-20T04:34:18.576Z,64.68
2023-01-20T04:37:06.382Z,66.05
2023-01-20T04:39:54.443Z,58.80
2023-01-20T04:42:42.050Z,93.97
2023-01-20T04:45:29.746Z,55.22
2023-01-20T04:48:17.453Z,66.00
2023-01-20T04:51:07.475Z,61.40
2023-01-20T04:53:58.915Z,49.33
2023-01-20T04:56:48.709Z,54.45
2023-01-20T04:59:36.288Z,45.33
2023-01-20T05:02:23.946Z,45.40
2023-01-20T05:05:11.707Z,45.42
2023-01-20T05:07:59.896Z,55.83
2023-01-20T05:10:47.599Z,49.90
2023-01-20T05:13:39.155Z,54.17
2023-01-20T05:16:31.975Z,46.15
2023-01-20T05:19:19.771Z,43.10
2023-01-20T05:22:07.385Z,47.88
2023-01-20T05:24:55.117Z,53.58
2023-01-20T05:27:42.805Z,49.97
2023-01-20T05:30:33.487Z,47.00
2023-01-20T05:33:21.206Z,66.43
2023-01-20T05:36:10.751Z,55.15
2023-01-20T05:38:58.387Z,48.17
2023-01-20T05:41:46.554Z,59.53
2023-01-20T05:44:35.408Z,60.80
2023-01-20T05:47:22.899Z,56.40
2023-01-20T05:50:11.369Z,47.85
2023-01-20T05:52:59.029Z,44.72
2023-01-20T05:55:47.038Z,53.95
2023-01-20T05:58:34.973Z,47.25
2023-01-20T06:01:22.934Z,51.10
2023-01-20T06:04:10.634Z,53.03
2023-01-20T06:06:58.374Z,51.97
2023-01-20T06:09:45.969Z,50.53
2023-01-20T06:12:33.590Z,46.42
2023-01-20T06:15:23.806Z,42.45
2023-01-20T06:18:14.214Z,44.15
2023-01-20T06:21:02.754Z,43.50
2023-01-20T06:23:50.440Z,52.55
2023-01-20T06:26:38.019Z,50.92
2023-01-20T06:29:25.657Z,48.67
2023-01-20T06:32:13.967Z,45.63
2023-01-20T06:35:06.583Z,45.55
2023-01-20T06:38:10.961Z,44.20
2023-01-20T06:41:17.724Z,43.85
2023-01-20T06:44:06.047Z,41.28
2023-01-20T06:46:54.746Z,38.60
2023-01-20T06:49:42.324Z,41.25
2023-01-20T06:52:30.510Z,38.78
2023-01-20T06:55:18.356Z,35.63
2023-01-20T06:58:20.349Z,38.00
2023-01-20T07:01:14.642Z,37.47
2023-01-20T07:04:03.090Z,41.45
2023-01-20T07:06:51.473Z,44.00
2023-01-20T07:09:44.904Z,44.50
2023-01-20T07:12:59.730Z,66.68
2023-01-20T07:15:53.571Z,56.33
2023-01-20T07:21:53.886Z,54.33
2023-01-20T07:24:52.888Z,74.03
2023-01-20T07:27:46.857Z,73.35
2023-01-20T07:30:55.609Z,64.97
2023-01-20T07:33:51.120Z,69.20
2023-01-20T07:36:51.377Z,66.57
2023-01-20T07:39:56.670Z,81.43
2023-01-20T07:42:57.852Z,56.63
2023-01-20T07:46:14.947Z,57.58
2023-01-20T07:49:15.222Z,57.88
2023-01-20T07:52:07.405Z,59.83
2023-01-20T07:55:06.102Z,53.15
2023-01-20T07:58:11.868Z,57.22
2023-01-20T08:01:24.048Z,53.33
2023-01-20T08:07:33.716Z,62.55
2023-01-20T08:10:22.299Z,57.97
2023-01-20T08:13:29.796Z,55.35
2023-01-20T08:20:04.303Z,38.15
2023-01-20T08:23:04.346Z,40.28
2023-01-20T08:49:08.326Z,46.10
2023-01-20T08:50:58.855Z,43.30
2023-01-20T09:07:16.012Z,37.58
2023-01-20T09:10:11.527Z,40.67
2023-01-20T09:13:10.825Z,39.92
2023-01-20T09:19:29.456Z,39.15
2023-01-20T09:39:02.227Z,44.20
2023-01-20T09:53:49.149Z,38.90
2023-01-20T10:04:32.807Z,42.70
2023-01-20T10:26:17.780Z,41.20
2023-01-20T10:29:28.079Z,43.58
2023-01-20T10:32:47.122Z,39.65
2023-01-20T10:47:58.677Z,39.97
2023-01-20T10:55:21.976Z,39.80
2023-01-20T10:58:22.769Z,38.38
2023-01-20T11:01:19.370Z,37.25
2023-01-20T11:04:28.844Z,38.88
2023-01-20T11:10:37.970Z,35.28
2023-01-20T11:13:28.804Z,39.47
2023-01-20T11:37:45.885Z,36.95
2023-01-20T11:47:39.741Z,39.55
2023-01-20T11:50:57.291Z,38.58
2023-01-20T11:53:47.159Z,40.17
2023-01-20T11:56:47.775Z,40.35
2023-01-20T11:59:37.755Z,37.53
2023-01-20T12:02:29.453Z,39.28
2023-01-20T12:05:55.236Z,41.30
2023-01-20T12:09:05.346Z,41.80
2023-01-20T12:11:58.268Z,42.22
2023-01-20T12:15:04.386Z,42.70
2023-01-20T12:18:08.189Z,40.60
2023-01-20T12:21:11.314Z,42.97
2023-01-20T12:24:16.109Z,39.10
2023-01-20T12:27:04.301Z,41.15
2023-01-20T12:29:57.247Z,43.50
2023-01-20T12:32:46.495Z,44.80
2023-01-20T12:35:43.656Z,48.47
2023-01-20T12:38:42.484Z,45.08
2023-01-20T12:44:16.486Z,47.67
2023-01-20T12:47:26.626Z,46.22
2023-01-20T12:50:27.290Z,45.42
2023-01-20T12:53:51.388Z,43.83
2023-01-20T12:57:05.406Z,44.67
2023-01-20T13:00:46.646Z,39.95
2023-01-20T13:04:02.794Z,39.90
2023-01-20T13:07:28.101Z,41.67
2023-01-20T13:10:27.592Z,42.03
2023-01-20T13:13:56.415Z,41.33
2023-01-20T13:17:03.568Z,39.03
2023-01-20T13:19:59.346Z,38.55
2023-01-20T13:22:47.607Z,35.95
2023-01-20T13:25:39.392Z,36.58
2023-01-20T13:28:29.213Z,35.15
2023-01-20T13:31:40.276Z,36.95
2023-01-20T13:34:47.538Z,35.67
2023-01-20T13:38:04.525Z,37.35
2023-01-20T13:41:07.150Z,37.05
2023-01-20T13:44:04.625Z,33.85
2023-01-20T13:47:02.726Z,33.40
2023-01-20T13:49:58.017Z,33.20
2023-01-20T13:56:11.035Z,33.75
2023-01-20T13:58:59.511Z,36.28
2023-01-20T14:02:00.333Z,35.92
2023-01-20T14:04:55.418Z,35.88
2023-01-20T14:07:56.781Z,35.05
2023-01-20T14:10:45.091Z,34.17
2023-01-20T14:13:33.012Z,34.95
2023-01-20T14:16:26.593Z,37.22
2023-01-20T14:22:39.217Z,41.42
2023-01-20T14:25:28.131Z,42.65
2023-01-20T14:28:20.362Z,40.38
2023-01-20T14:31:19.410Z,37.72
2023-01-20T14:34:34.044Z,42.95
2023-01-20T14:40:13.094Z,39.20
2023-01-20T14:43:20.935Z,41.25
2023-01-20T14:46:20.446Z,41.08
2023-01-20T14:49:18.906Z,39.67
2023-01-20T14:52:08.750Z,39.45
2023-01-20T14:54:57.502Z,40.60
2023-01-20T14:57:49.797Z,39.38
2023-01-20T15:00:46.246Z,38.00
2023-01-20T15:03:36.353Z,38.15
2023-01-20T15:06:25.766Z,37.38
2023-01-20T15:09:34.720Z,35.72
2023-01-20T15:12:36.041Z,38.65
2023-01-20T15:15:29.752Z,38.65
2023-01-20T15:18:23.919Z,38.08
2023-01-20T15:21:28.142Z,40.92
2023-01-20T15:27:33.759Z,39.28
2023-01-20T15:30:26.355Z,40.85
2023-01-20T15:33:15.086Z,43.55
2023-01-20T15:36:18.892Z,41.13
2023-01-20T15:39:20.807Z,41.42
2023-01-20T15:42:11.750Z,43.72
2023-01-20T15:45:05.087Z,44.47
2023-01-20T15:47:54.336Z,41.30
2023-01-20T15:50:43.330Z,41.10
2023-01-20T15:53:31.491Z,44.85
2023-01-20T15:56:23.956Z,40.88
2023-01-20T15:59:17.777Z,42.10
2023-01-20T16:05:05.932Z,41.95
2023-01-20T16:07:57.871Z,41.85
2023-01-20T16:10:58.871Z,43.83
2023-01-20T16:13:53.576Z,45.15
2023-01-20T16:16:44.433Z,47.92
2023-01-20T18:54:02.367Z,55.92
2023-01-20T18:56:58.233Z,59.47
2023-01-20T18:59:48.451Z,62.47
2023-01-20T19:03:08.572Z,62.53
2023-01-20T19:09:12.107Z,71.22
2023-01-20T19:12:28.948Z,67.65
2023-01-20T19:15:43.852Z,74.43
2023-01-20T19:18:32.108Z,72.95
2023-01-20T19:21:20.289Z,68.35
2023-01-20T19:24:08.583Z,71.53
2023-01-20T19:27:02.552Z,70.40
2023-01-20T19:29:50.330Z,67.20
2023-01-20T19:32:43.606Z,65.03
2023-01-20T19:38:40.015Z,69.53
2023-01-20T19:41:35.511Z,64.05
2023-01-20T19:44:40.141Z,63.80
2023-01-20T19:47:33.608Z,70.05
2023-01-20T19:50:21.335Z,65.40
2023-01-20T19:53:08.865Z,66.30
2023-01-20T19:56:08.203Z,64.05
2023-01-20T19:58:56.184Z,72.05
2023-01-20T20:01:44.019Z,63.53
2023-01-20T20:04:32.741Z,68.43
2023-01-20T20:07:20.454Z,56.78
2023-01-20T20:10:14.682Z,53.13
2023-01-20T20:13:05.857Z,44.90
2023-01-20T20:16:04.952Z,46.83
2023-01-20T20:18:53.214Z,47.85
2023-01-20T20:21:41.249Z,47.80
2023-01-20T20:24:28.969Z,32.72
2023-01-20T20:27:19.802Z,28.67
2023-01-20T20:30:08.712Z,46.25
2023-01-20T20:33:01.356Z,52.85
2023-01-20T20:36:04.871Z,47.13
2023-01-20T20:39:02.410Z,58.92
2023-01-20T20:41:54.668Z,57.20
2023-01-20T20:44:45.086Z,59.80
2023-01-20T20:47:36.539Z,52.50
2023-01-20T20:50:31.675Z,43.35
2023-01-20T20:53:20.566Z,31.33
2023-01-20T20:56:16.674Z,36.25
2023-01-20T20:59:08.922Z,44.05
2023-01-20T21:01:56.849Z,48.78
2023-01-20T21:04:58.334Z,45.63
2023-01-20T21:08:00.847Z,60.65
2023-01-20T21:10:49.743Z,55.92
2023-01-20T21:13:52.895Z,59.60
2023-01-20T21:16:41.728Z,108.68
2023-01-20T21:19:30.847Z,91.40
2023-01-20T21:22:22.976Z,78.25
2023-01-20T21:25:11.092Z,80.15
2023-01-20T21:27:59.931Z,61.25
2023-01-20T21:30:54.310Z,55.85
2023-01-20T21:33:51.546Z,54.58
2023-01-20T21:36:46.307Z,53.30
2023-01-20T21:39:39.035Z,48.25
2023-01-20T21:42:27.804Z,48.60
2023-01-20T21:45:15.582Z,48.55
2023-01-20T21:48:23.393Z,47.30
2023-01-20T21:51:29.985Z,45.70
2023-01-20T21:54:18.423Z,47.53
2023-01-20T21:57:06.656Z,46.33
2023-01-20T21:59:54.851Z,45.72
2023-01-20T22:02:47.882Z,45.35
2023-01-20T22:05:39.013Z,45.43
2023-01-20T22:08:32.764Z,44.00
2023-01-20T22:11:21.873Z,43.20
2023-01-20T22:14:16.972Z,42.05
2023-01-20T22:17:12.685Z,41.85
2023-01-20T22:20:22.652Z,41.90
2023-01-20T22:23:12.314Z,41.70
2023-01-20T22:26:08.893Z,40.58
2023-01-20T22:29:38.540Z,40.15
2023-01-20T22:32:29.068Z,42.17
2023-01-20T22:35:29.045Z,41.88
2023-01-20T22:38:32.885Z,40.65
2023-01-20T22:41:23.995Z,37.63
2023-01-20T22:44:34.890Z,40.88
2023-01-20T22:47:28.852Z,40.30
2023-01-20T22:50:22.100Z,38.35
2023-01-20T22:53:40.869Z,37.85
2023-01-20T23:07:14.246Z,37.67
2023-01-20T23:18:45.770Z,36.30
2023-01-20T23:25:13.949Z,35.22
2023-01-20T23:28:05.600Z,35.25
2023-01-20T23:31:29.141Z,35.10
2023-01-20T23:34:51.146Z,35.10
2023-01-20T23:41:39.037Z,36.58
2023-01-20T23:44:49.165Z,37.28
2023-01-20T23:47:36.951Z,38.78
2023-01-20T23:51:04.869Z,39.25
2023-01-20T23:54:16.008Z,38.30
2023-01-20T23:57:41.875Z,38.70
